Yabucoa, Puerto Rico
Current Conditions -  °F | °C
As of 11:53 AM on Friday 24 Oct 2014 (Local Time) from TJNR Reporting Station
Clear Clear  
Wind Chill: 89°   Ceiling: Unl
Heat Index: 100°   Visibility: 10mi
Dew Point: 76°   Wind: 13mph
Humidity: 65%   Direction: 160°SSE
Pressure: 29.97"   Gusts: NA
Location:  18.05°N, 65.88°W
Report Text: TJNR 241553Z AUTO 16011KT 10SM CLR 32/24 A2997 RMK AO2 SLP148 T03170244 $
Loading
Personal Weather Stations






























Interactive Weather Map New forecast layout! Learn more

10-Day Weather Forecast

Advertisements
Track Severe Weather on mobile